sensor_id;sensor_type;location;lat;lon;timestamp;P1;durP1;ratioP1;P2;durP2;ratioP2
75758;SDS011;64371;47.566;19.086;2023-05-07T10:42:14;6.60;;;3.63;;
75758;SDS011;64371;47.566;19.086;2023-05-07T10:45:24;4.38;;;3.97;;
75758;SDS011;64371;47.566;19.086;2023-05-07T10:48:29;6.15;;;3.63;;
75758;SDS011;64371;47.566;19.086;2023-05-07T10:51:38;7.07;;;5.30;;
75758;SDS011;64371;47.566;19.086;2023-05-07T10:58:38;5.80;;;4.95;;
75758;SDS011;64371;47.566;19.086;2023-05-07T11:01:54;5.75;;;4.82;;
75758;SDS011;64371;47.566;19.086;2023-05-07T11:05:20;5.65;;;4.45;;
75758;SDS011;64371;47.566;19.086;2023-05-07T11:08:57;5.57;;;4.57;;
75758;SDS011;64371;47.566;19.086;2023-05-07T11:12:10;4.50;;;4.10;;
75758;SDS011;64371;47.566;19.086;2023-05-07T11:19:12;5.18;;;3.70;;
75758;SDS011;64371;47.566;19.086;2023-05-07T11:25:57;4.87;;;4.37;;
75758;SDS011;64371;47.566;19.086;2023-05-07T11:29:14;4.15;;;3.75;;
75758;SDS011;64371;47.566;19.086;2023-05-07T11:32:28;5.22;;;3.50;;
75758;SDS011;64371;47.566;19.086;2023-05-07T11:35:35;4.00;;;3.60;;
75758;SDS011;64371;47.566;19.086;2023-05-07T11:38:42;4.85;;;4.10;;
75758;SDS011;64371;47.566;19.086;2023-05-07T11:41:44;5.73;;;3.40;;
75758;SDS011;64371;47.566;19.086;2023-05-07T11:44:46;4.38;;;3.25;;
75758;SDS011;64371;47.566;19.086;2023-05-07T11:47:50;3.70;;;3.25;;
75758;SDS011;64371;47.566;19.086;2023-05-07T11:50:53;3.58;;;3.28;;
75758;SDS011;64371;47.566;19.086;2023-05-07T11:54:05;3.92;;;3.63;;
75758;SDS011;64371;47.566;19.086;2023-05-07T11:57:14;3.63;;;3.33;;
75758;SDS011;64371;47.566;19.086;2023-05-07T12:00:17;3.40;;;3.10;;
75758;SDS011;64371;47.566;19.086;2023-05-07T12:03:20;3.47;;;3.17;;
75758;SDS011;64371;47.566;19.086;2023-05-07T12:06:25;4.05;;;3.45;;
75758;SDS011;64371;47.566;19.086;2023-05-07T12:09:27;3.83;;;3.35;;
75758;SDS011;64371;47.566;19.086;2023-05-07T12:12:30;6.23;;;3.57;;
75758;SDS011;64371;47.566;19.086;2023-05-07T12:15:34;3.20;;;2.70;;
75758;SDS011;64371;47.566;19.086;2023-05-07T12:18:37;4.07;;;3.20;;
75758;SDS011;64371;47.566;19.086;2023-05-07T12:21:40;3.92;;;3.30;;
75758;SDS011;64371;47.566;19.086;2023-05-07T12:24:43;4.25;;;3.60;;
75758;SDS011;64371;47.566;19.086;2023-05-07T12:27:53;3.67;;;3.37;;
75758;SDS011;64371;47.566;19.086;2023-05-07T12:30:55;5.00;;;4.50;;
75758;SDS011;64371;47.566;19.086;2023-05-07T12:33:58;4.28;;;3.38;;
75758;SDS011;64371;47.566;19.086;2023-05-07T12:37:03;3.90;;;3.50;;
75758;SDS011;64371;47.566;19.086;2023-05-07T12:40:06;3.85;;;3.53;;
75758;SDS011;64371;47.566;19.086;2023-05-07T12:43:20;4.37;;;3.43;;
75758;SDS011;64371;47.566;19.086;2023-05-07T12:46:27;3.58;;;3.28;;
75758;SDS011;64371;47.566;19.086;2023-05-07T12:49:34;4.00;;;3.10;;
75758;SDS011;64371;47.566;19.086;2023-05-07T12:52:39;3.40;;;2.97;;
75758;SDS011;64371;47.566;19.086;2023-05-07T12:55:44;4.10;;;3.15;;
75758;SDS011;64371;47.566;19.086;2023-05-07T12:58:48;3.20;;;2.90;;
75758;SDS011;64371;47.566;19.086;2023-05-07T13:01:51;3.38;;;3.05;;
75758;SDS011;64371;47.566;19.086;2023-05-07T13:04:55;3.67;;;2.67;;
75758;SDS011;64371;47.566;19.086;2023-05-07T13:07:57;4.00;;;3.60;;
75758;SDS011;64371;47.566;19.086;2023-05-07T13:11:02;4.10;;;3.65;;
75758;SDS011;64371;47.566;19.086;2023-05-07T13:14:08;4.37;;;3.13;;
75758;SDS011;64371;47.566;19.086;2023-05-07T13:17:12;6.88;;;3.10;;
75758;SDS011;64371;47.566;19.086;2023-05-07T13:20:15;2.70;;;2.50;;
75758;SDS011;64371;47.566;19.086;2023-05-07T13:23:17;2.85;;;2.50;;
75758;SDS011;64371;47.566;19.086;2023-05-07T13:26:19;3.15;;;2.47;;
75758;SDS011;64371;47.566;19.086;2023-05-07T13:29:30;3.23;;;2.90;;
75758;SDS011;64371;47.566;19.086;2023-05-07T13:32:33;4.45;;;2.90;;
75758;SDS011;64371;47.566;19.086;2023-05-07T13:35:36;4.38;;;3.05;;
75758;SDS011;64371;47.566;19.086;2023-05-07T13:38:39;3.33;;;3.03;;
75758;SDS011;64371;47.566;19.086;2023-05-07T13:41:44;3.17;;;2.88;;
75758;SDS011;64371;47.566;19.086;2023-05-07T13:44:46;3.07;;;2.80;;
75758;SDS011;64371;47.566;19.086;2023-05-07T13:47:49;3.95;;;2.83;;
75758;SDS011;64371;47.566;19.086;2023-05-07T13:50:51;2.55;;;2.35;;
75758;SDS011;64371;47.566;19.086;2023-05-07T13:53:54;5.78;;;2.92;;
75758;SDS011;64371;47.566;19.086;2023-05-07T13:56:58;4.28;;;2.95;;
75758;SDS011;64371;47.566;19.086;2023-05-07T14:00:03;4.33;;;3.30;;
75758;SDS011;64371;47.566;19.086;2023-05-07T14:03:15;4.68;;;3.17;;
75758;SDS011;64371;47.566;19.086;2023-05-07T14:06:19;3.72;;;3.00;;
75758;SDS011;64371;47.566;19.086;2023-05-07T14:09:21;4.50;;;3.17;;
75758;SDS011;64371;47.566;19.086;2023-05-07T14:12:24;4.07;;;3.20;;
75758;SDS011;64371;47.566;19.086;2023-05-07T14:15:26;3.93;;;3.07;;
75758;SDS011;64371;47.566;19.086;2023-05-07T14:18:29;3.55;;;2.80;;
75758;SDS011;64371;47.566;19.086;2023-05-07T14:21:31;4.03;;;2.53;;
75758;SDS011;64371;47.566;19.086;2023-05-07T14:24:34;3.78;;;2.67;;
75758;SDS011;64371;47.566;19.086;2023-05-07T14:27:39;4.70;;;3.17;;
75758;SDS011;64371;47.566;19.086;2023-05-07T14:30:42;4.13;;;2.90;;
75758;SDS011;64371;47.566;19.086;2023-05-07T14:33:46;3.38;;;2.80;;
75758;SDS011;64371;47.566;19.086;2023-05-07T14:36:48;4.32;;;3.10;;
75758;SDS011;64371;47.566;19.086;2023-05-07T14:39:51;6.07;;;3.08;;
75758;SDS011;64371;47.566;19.086;2023-05-07T14:42:53;3.55;;;3.13;;
75758;SDS011;64371;47.566;19.086;2023-05-07T14:45:55;4.40;;;3.23;;
75758;SDS011;64371;47.566;19.086;2023-05-07T14:48:58;6.35;;;3.70;;
75758;SDS011;64371;47.566;19.086;2023-05-07T14:52:00;5.75;;;3.35;;
75758;SDS011;64371;47.566;19.086;2023-05-07T14:55:03;4.60;;;3.50;;
75758;SDS011;64371;47.566;19.086;2023-05-07T14:58:06;4.63;;;3.60;;
75758;SDS011;64371;47.566;19.086;2023-05-07T15:01:08;7.30;;;3.60;;
75758;SDS011;64371;47.566;19.086;2023-05-07T15:04:11;6.43;;;3.58;;
75758;SDS011;64371;47.566;19.086;2023-05-07T15:07:16;5.97;;;3.97;;
75758;SDS011;64371;47.566;19.086;2023-05-07T15:10:19;4.25;;;3.85;;
75758;SDS011;64371;47.566;19.086;2023-05-07T15:13:21;4.30;;;3.70;;
75758;SDS011;64371;47.566;19.086;2023-05-07T15:16:24;4.80;;;3.93;;
75758;SDS011;64371;47.566;19.086;2023-05-07T15:19:26;5.82;;;4.47;;
75758;SDS011;64371;47.566;19.086;2023-05-07T15:22:31;6.68;;;4.10;;
75758;SDS011;64371;47.566;19.086;2023-05-07T15:25:33;7.07;;;3.67;;
75758;SDS011;64371;47.566;19.086;2023-05-07T15:28:36;3.83;;;3.40;;
75758;SDS011;64371;47.566;19.086;2023-05-07T15:31:38;4.23;;;3.70;;
75758;SDS011;64371;47.566;19.086;2023-05-07T15:34:41;5.28;;;4.05;;
75758;SDS011;64371;47.566;19.086;2023-05-07T15:37:47;5.35;;;3.75;;
75758;SDS011;64371;47.566;19.086;2023-05-07T15:40:52;16.85;;;3.95;;
75758;SDS011;64371;47.566;19.086;2023-05-07T15:43:54;4.03;;;3.63;;
75758;SDS011;64371;47.566;19.086;2023-05-07T15:46:58;2.93;;;2.63;;
75758;SDS011;64371;47.566;19.086;2023-05-07T15:50:01;3.53;;;2.90;;
75758;SDS011;64371;47.566;19.086;2023-05-07T15:53:04;3.92;;;3.03;;
75758;SDS011;64371;47.566;19.086;2023-05-07T15:56:06;3.30;;;2.70;;
75758;SDS011;64371;47.566;19.086;2023-05-07T15:59:09;3.92;;;2.92;;
75758;SDS011;64371;47.566;19.086;2023-05-07T16:02:16;3.63;;;2.80;;
75758;SDS011;64371;47.566;19.086;2023-05-07T16:05:18;4.78;;;2.72;;
75758;SDS011;64371;47.566;19.086;2023-05-07T16:08:21;3.47;;;2.28;;
75758;SDS011;64371;47.566;19.086;2023-05-07T16:11:23;3.72;;;2.42;;
75758;SDS011;64371;47.566;19.086;2023-05-07T16:14:25;5.82;;;2.40;;
75758;SDS011;64371;47.566;19.086;2023-05-07T16:17:28;2.83;;;1.87;;
75758;SDS011;64371;47.566;19.086;2023-05-07T16:20:30;2.33;;;2.13;;
75758;SDS011;64371;47.566;19.086;2023-05-07T16:23:33;2.70;;;2.22;;
75758;SDS011;64371;47.566;19.086;2023-05-07T16:26:35;2.92;;;2.05;;
75758;SDS011;64371;47.566;19.086;2023-05-07T16:29:38;3.50;;;2.20;;
75758;SDS011;64371;47.566;19.086;2023-05-07T16:32:41;3.93;;;2.13;;
75758;SDS011;64371;47.566;19.086;2023-05-07T16:35:43;3.15;;;2.08;;
75758;SDS011;64371;47.566;19.086;2023-05-07T16:38:48;3.13;;;1.90;;
75758;SDS011;64371;47.566;19.086;2023-05-07T16:41:50;2.30;;;2.10;;
75758;SDS011;64371;47.566;19.086;2023-05-07T16:44:53;2.40;;;1.70;;
75758;SDS011;64371;47.566;19.086;2023-05-07T16:47:55;3.63;;;1.90;;
75758;SDS011;64371;47.566;19.086;2023-05-07T16:50:59;5.18;;;2.22;;
75758;SDS011;64371;47.566;19.086;2023-05-07T16:54:02;2.30;;;2.10;;
75758;SDS011;64371;47.566;19.086;2023-05-07T16:57:04;2.50;;;2.20;;
75758;SDS011;64371;47.566;19.086;2023-05-07T17:00:06;2.47;;;2.13;;
75758;SDS011;64371;47.566;19.086;2023-05-07T17:03:10;3.27;;;2.20;;
75758;SDS011;64371;47.566;19.086;2023-05-07T17:06:13;3.70;;;1.92;;
75758;SDS011;64371;47.566;19.086;2023-05-07T17:09:16;2.92;;;2.00;;
75758;SDS011;64371;47.566;19.086;2023-05-07T17:12:18;3.17;;;2.00;;
75758;SDS011;64371;47.566;19.086;2023-05-07T17:15:20;3.15;;;2.03;;
75758;SDS011;64371;47.566;19.086;2023-05-07T17:18:23;4.57;;;2.30;;
75758;SDS011;64371;47.566;19.086;2023-05-07T17:21:25;2.15;;;1.90;;
75758;SDS011;64371;47.566;19.086;2023-05-07T17:24:28;3.38;;;1.90;;
75758;SDS011;64371;47.566;19.086;2023-05-07T17:27:31;1.95;;;1.77;;
75758;SDS011;64371;47.566;19.086;2023-05-07T17:30:37;3.15;;;1.70;;
75758;SDS011;64371;47.566;19.086;2023-05-07T17:33:39;2.63;;;1.83;;
75758;SDS011;64371;47.566;19.086;2023-05-07T17:36:41;3.83;;;2.20;;
75758;SDS011;64371;47.566;19.086;2023-05-07T17:39:44;2.75;;;2.03;;
75758;SDS011;64371;47.566;19.086;2023-05-07T17:42:47;3.17;;;2.20;;
75758;SDS011;64371;47.566;19.086;2023-05-07T17:45:50;4.38;;;1.85;;
75758;SDS011;64371;47.566;19.086;2023-05-07T17:48:52;2.57;;;2.07;;
75758;SDS011;64371;47.566;19.086;2023-05-07T17:51:54;3.90;;;1.75;;
75758;SDS011;64371;47.566;19.086;2023-05-07T17:54:57;2.75;;;2.00;;
75758;SDS011;64371;47.566;19.086;2023-05-07T17:57:59;3.47;;;1.95;;
75758;SDS011;64371;47.566;19.086;2023-05-07T18:01:04;2.30;;;1.90;;
75758;SDS011;64371;47.566;19.086;2023-05-07T18:04:07;5.43;;;2.40;;
75758;SDS011;64371;47.566;19.086;2023-05-07T18:07:09;2.88;;;2.20;;
75758;SDS011;64371;47.566;19.086;2023-05-07T18:10:12;4.80;;;2.30;;
75758;SDS011;64371;47.566;19.086;2023-05-07T18:13:15;3.60;;;2.80;;
75758;SDS011;64371;47.566;19.086;2023-05-07T18:16:17;3.97;;;2.40;;
75758;SDS011;64371;47.566;19.086;2023-05-07T18:19:21;3.87;;;2.50;;
75758;SDS011;64371;47.566;19.086;2023-05-07T18:22:23;5.03;;;2.50;;
75758;SDS011;64371;47.566;19.086;2023-05-07T18:25:25;4.50;;;2.67;;
75758;SDS011;64371;47.566;19.086;2023-05-07T18:28:28;3.55;;;2.60;;
75758;SDS011;64371;47.566;19.086;2023-05-07T18:31:30;3.20;;;2.70;;
75758;SDS011;64371;47.566;19.086;2023-05-07T18:34:32;4.40;;;2.60;;
75758;SDS011;64371;47.566;19.086;2023-05-07T18:37:35;5.63;;;2.92;;
75758;SDS011;64371;47.566;19.086;2023-05-07T18:40:37;3.67;;;2.78;;
75758;SDS011;64371;47.566;19.086;2023-05-07T18:43:47;5.75;;;2.85;;
75758;SDS011;64371;47.566;19.086;2023-05-07T18:46:50;4.95;;;3.33;;
75758;SDS011;64371;47.566;19.086;2023-05-07T18:49:52;3.57;;;3.00;;
75758;SDS011;64371;47.566;19.086;2023-05-07T18:52:54;4.25;;;3.25;;
75758;SDS011;64371;47.566;19.086;2023-05-07T18:55:57;3.47;;;2.90;;
75758;SDS011;64371;47.566;19.086;2023-05-07T18:59:01;4.63;;;3.17;;
75758;SDS011;64371;47.566;19.086;2023-05-07T19:02:03;3.85;;;3.05;;
75758;SDS011;64371;47.566;19.086;2023-05-07T19:05:05;4.83;;;2.47;;
75758;SDS011;64371;47.566;19.086;2023-05-07T19:08:08;8.95;;;4.20;;
75758;SDS011;64371;47.566;19.086;2023-05-07T19:11:11;7.68;;;4.53;;
75758;SDS011;64371;47.566;19.086;2023-05-07T19:14:13;8.07;;;4.97;;
75758;SDS011;64371;47.566;19.086;2023-05-07T19:17:16;8.05;;;4.88;;
75758;SDS011;64371;47.566;19.086;2023-05-07T19:20:20;8.20;;;5.20;;
75758;SDS011;64371;47.566;19.086;2023-05-07T19:23:22;8.70;;;4.03;;
75758;SDS011;64371;47.566;19.086;2023-05-07T19:26:24;6.35;;;3.67;;
75758;SDS011;64371;47.566;19.086;2023-05-07T19:29:27;5.18;;;3.28;;
75758;SDS011;64371;47.566;19.086;2023-05-07T19:32:29;4.78;;;3.20;;
75758;SDS011;64371;47.566;19.086;2023-05-07T19:35:32;5.97;;;3.90;;
75758;SDS011;64371;47.566;19.086;2023-05-07T19:38:36;5.05;;;3.55;;
75758;SDS011;64371;47.566;19.086;2023-05-07T19:41:38;4.70;;;3.05;;
75758;SDS011;64371;47.566;19.086;2023-05-07T19:44:42;4.00;;;2.88;;
75758;SDS011;64371;47.566;19.086;2023-05-07T19:47:46;2.97;;;2.03;;
75758;SDS011;64371;47.566;19.086;2023-05-07T19:50:50;3.90;;;2.63;;
75758;SDS011;64371;47.566;19.086;2023-05-07T19:53:52;3.55;;;2.65;;
75758;SDS011;64371;47.566;19.086;2023-05-07T19:56:54;3.53;;;2.22;;
75758;SDS011;64371;47.566;19.086;2023-05-07T19:59:57;2.75;;;1.75;;
75758;SDS011;64371;47.566;19.086;2023-05-07T20:03:00;3.65;;;1.98;;
75758;SDS011;64371;47.566;19.086;2023-05-07T20:06:02;5.47;;;2.57;;
75758;SDS011;64371;47.566;19.086;2023-05-07T20:09:05;5.75;;;2.75;;
75758;SDS011;64371;47.566;19.086;2023-05-07T20:12:11;3.75;;;2.50;;
75758;SDS011;64371;47.566;19.086;2023-05-07T20:15:13;3.17;;;2.47;;
75758;SDS011;64371;47.566;19.086;2023-05-07T20:18:15;5.40;;;2.58;;
75758;SDS011;64371;47.566;19.086;2023-05-07T20:21:17;4.40;;;2.30;;
75758;SDS011;64371;47.566;19.086;2023-05-07T20:24:20;3.80;;;2.55;;
75758;SDS011;64371;47.566;19.086;2023-05-07T20:27:23;5.28;;;2.53;;
75758;SDS011;64371;47.566;19.086;2023-05-07T20:30:26;5.75;;;3.05;;
75758;SDS011;64371;47.566;19.086;2023-05-07T20:33:32;3.47;;;2.60;;
75758;SDS011;64371;47.566;19.086;2023-05-07T20:36:37;4.10;;;2.87;;
75758;SDS011;64371;47.566;19.086;2023-05-07T20:39:40;5.60;;;2.67;;
75758;SDS011;64371;47.566;19.086;2023-05-07T20:42:42;4.03;;;2.08;;
75758;SDS011;64371;47.566;19.086;2023-05-07T20:45:45;3.25;;;1.95;;
75758;SDS011;64371;47.566;19.086;2023-05-07T20:48:47;2.40;;;1.80;;
75758;SDS011;64371;47.566;19.086;2023-05-07T20:51:50;4.97;;;1.90;;
75758;SDS011;64371;47.566;19.086;2023-05-07T20:54:52;4.22;;;2.78;;
75758;SDS011;64371;47.566;19.086;2023-05-07T20:57:55;2.90;;;2.25;;
75758;SDS011;64371;47.566;19.086;2023-05-07T21:00:57;2.83;;;2.10;;
75758;SDS011;64371;47.566;19.086;2023-05-07T21:03:59;3.78;;;2.50;;
75758;SDS011;64371;47.566;19.086;2023-05-07T21:07:02;3.90;;;2.90;;
75758;SDS011;64371;47.566;19.086;2023-05-07T21:10:04;4.68;;;3.00;;
75758;SDS011;64371;47.566;19.086;2023-05-07T21:13:07;3.75;;;2.47;;
75758;SDS011;64371;47.566;19.086;2023-05-07T21:16:09;4.25;;;2.38;;
75758;SDS011;64371;47.566;19.086;2023-05-07T21:19:12;8.45;;;2.35;;
75758;SDS011;64371;47.566;19.086;2023-05-07T21:22:14;3.50;;;2.53;;
75758;SDS011;64371;47.566;19.086;2023-05-07T21:25:16;1.85;;;1.23;;
75758;SDS011;64371;47.566;19.086;2023-05-07T21:28:19;3.90;;;2.55;;
75758;SDS011;64371;47.566;19.086;2023-05-07T21:31:21;3.92;;;2.70;;
75758;SDS011;64371;47.566;19.086;2023-05-07T21:34:23;3.97;;;2.30;;
75758;SDS011;64371;47.566;19.086;2023-05-07T21:37:26;3.70;;;2.60;;
75758;SDS011;64371;47.566;19.086;2023-05-07T21:40:28;2.85;;;2.00;;
75758;SDS011;64371;47.566;19.086;2023-05-07T21:43:31;5.38;;;2.50;;
75758;SDS011;64371;47.566;19.086;2023-05-07T21:46:34;4.72;;;3.38;;
75758;SDS011;64371;47.566;19.086;2023-05-07T21:49:36;3.00;;;2.45;;
75758;SDS011;64371;47.566;19.086;2023-05-07T21:52:38;3.93;;;2.70;;
75758;SDS011;64371;47.566;19.086;2023-05-07T21:55:41;5.82;;;2.80;;
75758;SDS011;64371;47.566;19.086;2023-05-07T21:58:43;3.90;;;2.50;;
75758;SDS011;64371;47.566;19.086;2023-05-07T22:01:45;4.82;;;2.40;;
75758;SDS011;64371;47.566;19.086;2023-05-07T22:04:48;3.78;;;2.40;;
75758;SDS011;64371;47.566;19.086;2023-05-07T22:07:50;5.43;;;2.87;;
75758;SDS011;64371;47.566;19.086;2023-05-07T22:10:52;6.45;;;3.00;;
75758;SDS011;64371;47.566;19.086;2023-05-07T22:13:55;5.32;;;2.58;;
75758;SDS011;64371;47.566;19.086;2023-05-07T22:16:57;5.30;;;2.45;;
75758;SDS011;64371;47.566;19.086;2023-05-07T22:20:00;3.58;;;2.38;;
75758;SDS011;64371;47.566;19.086;2023-05-07T22:23:02;4.37;;;2.90;;
75758;SDS011;64371;47.566;19.086;2023-05-07T22:26:11;4.65;;;3.20;;
75758;SDS011;64371;47.566;19.086;2023-05-07T22:29:16;5.47;;;3.15;;
75758;SDS011;64371;47.566;19.086;2023-05-07T22:32:19;7.18;;;3.55;;
75758;SDS011;64371;47.566;19.086;2023-05-07T22:35:21;5.15;;;3.05;;
75758;SDS011;64371;47.566;19.086;2023-05-07T22:38:23;4.97;;;3.37;;
75758;SDS011;64371;47.566;19.086;2023-05-07T22:41:26;5.50;;;2.92;;
75758;SDS011;64371;47.566;19.086;2023-05-07T22:44:28;5.82;;;3.70;;
75758;SDS011;64371;47.566;19.086;2023-05-07T22:47:31;5.35;;;3.50;;
75758;SDS011;64371;47.566;19.086;2023-05-07T22:50:36;5.22;;;3.40;;
75758;SDS011;64371;47.566;19.086;2023-05-07T22:53:39;4.33;;;2.80;;
75758;SDS011;64371;47.566;19.086;2023-05-07T22:56:41;4.47;;;3.17;;
75758;SDS011;64371;47.566;19.086;2023-05-07T22:59:44;6.65;;;3.00;;
75758;SDS011;64371;47.566;19.086;2023-05-07T23:02:49;5.07;;;3.17;;
75758;SDS011;64371;47.566;19.086;2023-05-07T23:05:52;4.43;;;3.00;;
75758;SDS011;64371;47.566;19.086;2023-05-07T23:08:54;4.30;;;3.10;;
75758;SDS011;64371;47.566;19.086;2023-05-07T23:11:57;6.15;;;3.28;;
75758;SDS011;64371;47.566;19.086;2023-05-07T23:14:59;6.53;;;3.72;;
75758;SDS011;64371;47.566;19.086;2023-05-07T23:18:02;5.22;;;3.70;;
75758;SDS011;64371;47.566;19.086;2023-05-07T23:21:04;6.55;;;4.07;;
75758;SDS011;64371;47.566;19.086;2023-05-07T23:24:08;7.97;;;4.23;;
75758;SDS011;64371;47.566;19.086;2023-05-07T23:27:10;5.18;;;3.47;;
75758;SDS011;64371;47.566;19.086;2023-05-07T23:30:13;8.38;;;4.20;;
75758;SDS011;64371;47.566;19.086;2023-05-07T23:33:16;5.18;;;3.30;;
75758;SDS011;64371;47.566;19.086;2023-05-07T23:36:18;9.82;;;4.00;;
75758;SDS011;64371;47.566;19.086;2023-05-07T23:39:21;5.23;;;3.37;;
75758;SDS011;64371;47.566;19.086;2023-05-07T23:42:23;5.50;;;3.55;;
75758;SDS011;64371;47.566;19.086;2023-05-07T23:45:26;5.88;;;3.40;;
75758;SDS011;64371;47.566;19.086;2023-05-07T23:48:28;5.55;;;3.80;;
75758;SDS011;64371;47.566;19.086;2023-05-07T23:51:31;4.88;;;3.70;;
75758;SDS011;64371;47.566;19.086;2023-05-07T23:54:33;6.07;;;4.10;;
75758;SDS011;64371;47.566;19.086;2023-05-07T23:57:35;5.93;;;3.03;;
